Time;durP1;ratioP1;P1;durP2;ratioP2;P2;SDS_P1;SDS_P2;PMS_P1;PMS_P2;Temp;Humidity;BMP_temperature;BMP_pressure;BME280_temperature;BME280_humidity;BME280_pressure;Samples;Min_cycle;Max_cycle;Signal;HPM_P1;HPM_P2
2022/12/16 00:01:26;;;;;;;25.93;14.17;;;-6.20;99.90;-6.90;99871.00;;;;4978880;28;87362;-66
2022/12/16 00:03:57;;;;;;;18.97;13.90;;;-6.20;99.90;-6.80;99858.00;;;;4994851;27;87248;-66
2022/12/16 00:06:29;;;;;;;25.30;14.93;;;-6.10;99.90;-6.80;99850.00;;;;4974967;28;88514;-65
2022/12/16 00:08:55;;;;;;;24.20;13.83;;;-6.20;99.90;-6.70;99859.00;;;;4995054;28;87435;-66
2022/12/16 00:11:21;;;;;;;26.77;14.97;;;-6.20;99.90;-6.70;99864.00;;;;4959797;28;87140;-63
2022/12/16 00:13:47;;;;;;;27.43;14.87;;;-6.10;99.90;-6.70;99869.00;;;;4996454;27;86760;-64
2022/12/16 00:16:18;;;;;;;23.97;15.10;;;-6.00;99.90;-6.60;99868.00;;;;4991777;27;87638;-65
2022/12/16 00:18:45;;;;;;;23.93;14.67;;;-5.90;99.90;-6.60;99870.00;;;;4996153;27;87551;-65
2022/12/16 00:21:11;;;;;;;24.67;13.03;;;-5.90;99.90;-6.50;99862.00;;;;4977401;28;88556;-65
2022/12/16 00:23:40;;;;;;;26.10;16.00;;;-5.90;99.90;-6.50;99858.00;;;;4978826;27;87264;-66
2022/12/16 00:26:07;;;;;;;31.83;16.30;;;-5.90;99.90;-6.40;99863.00;;;;4962683;28;87997;-65
2022/12/16 00:28:33;;;;;;;28.73;15.00;;;-5.60;99.90;-6.40;99854.00;;;;4995077;27;88488;-65
2022/12/16 00:31:00;;;;;;;28.67;14.23;;;-5.70;99.90;-6.30;99849.00;;;;4996023;28;87440;-67
2022/12/16 00:33:26;;;;;;;26.73;13.80;;;-5.80;99.90;-6.30;99852.00;;;;4978272;27;87682;-65
2022/12/16 00:35:54;;;;;;;25.80;13.37;;;-5.80;99.90;-6.30;99854.00;;;;4995597;27;87631;-66
2022/12/16 00:38:22;;;;;;;26.73;15.10;;;-5.70;99.90;-6.30;99845.00;;;;4973927;28;89532;-65
2022/12/16 00:41:20;;;;;;;26.73;14.00;;;-5.60;99.90;-6.20;99854.00;;;;4972217;28;86920;-67
2022/12/16 00:43:47;;;;;;;25.60;13.70;;;-5.60;99.90;-6.20;99853.00;;;;4970664;28;87638;-67
2022/12/16 00:46:13;;;;;;;28.27;15.20;;;-5.50;99.90;-6.10;99845.00;;;;4978410;28;89079;-66
2022/12/16 00:48:39;;;;;;;25.07;14.37;;;-5.50;99.90;-6.10;99835.00;;;;4994475;28;88384;-66
2022/12/16 00:51:05;;;;;;;28.53;14.20;;;-5.40;99.90;-6.10;99838.00;;;;4958947;28;87427;-65
2022/12/16 00:53:31;;;;;;;25.43;14.07;;;-5.50;99.90;-6.00;99838.00;;;;4966185;28;87456;-66
2022/12/16 00:56:10;;;;;;;28.03;15.97;;;-5.40;99.90;-6.00;99818.00;;;;4985671;28;87397;-65
2022/12/16 00:58:37;;;;;;;24.20;14.50;;;-5.40;99.90;-6.00;99823.00;;;;4974287;28;87433;-65
2022/12/16 01:01:04;;;;;;;26.10;14.77;;;-5.40;99.90;-5.90;99841.00;;;;4992327;28;87343;-66
2022/12/16 01:03:33;;;;;;;23.57;13.23;;;-5.40;99.90;-5.90;99840.00;;;;4989752;27;86749;-66
2022/12/16 01:05:59;;;;;;;23.10;13.27;;;-5.30;99.90;-5.80;99845.00;;;;4994176;27;87658;-66
2022/12/16 01:08:25;;;;;;;34.70;15.63;;;-5.30;99.90;-5.80;99839.00;;;;4990931;28;87588;-66
2022/12/16 01:10:56;;;;;;;28.30;15.70;;;-5.20;99.90;-5.80;99845.00;;;;4978987;28;88347;-66
2022/12/16 01:13:24;;;;;;;22.37;14.93;;;-5.10;99.90;-5.70;99844.00;;;;4988547;28;87354;-67
2022/12/16 01:15:50;;;;;;;21.80;13.97;;;-5.10;99.90;-5.70;99847.00;;;;4992106;28;87673;-66
2022/12/16 01:18:17;;;;;;;24.70;15.07;;;-5.10;99.90;-5.70;99861.00;;;;4975414;28;87794;-66
2022/12/16 01:20:43;;;;;;;25.33;15.07;;;-5.20;99.90;-5.70;99860.00;;;;4976816;28;87510;-67
2022/12/16 01:23:12;;;;;;;30.63;14.73;;;-5.00;99.90;-5.70;99858.00;;;;4994481;28;87645;-65
2022/12/16 01:25:38;;;;;;;29.47;15.03;;;-5.00;99.90;-5.70;99857.00;;;;4991504;28;87738;-66
2022/12/16 01:28:04;;;;;;;26.40;14.13;;;-4.90;99.90;-5.60;99852.00;;;;4960978;28;87800;-66
2022/12/16 01:30:31;;;;;;;24.07;14.23;;;-5.00;99.90;-5.60;99860.00;;;;4994170;27;87394;-65
2022/12/16 01:33:13;;;;;;;27.83;14.63;;;-5.10;99.90;-5.70;99846.00;;;;4990262;28;87612;-67
2022/12/16 01:35:42;;;;;;;30.03;15.77;;;-5.00;99.90;-5.70;99851.00;;;;4951335;27;88392;-65
2022/12/16 01:38:10;;;;;;;22.67;13.70;;;-4.70;99.90;-5.70;99866.00;;;;4991707;27;88324;-67
2022/12/16 01:40:36;;;;;;;27.63;14.03;;;-5.10;99.90;-5.70;99859.00;;;;4963639;28;87331;-66
2022/12/16 01:43:11;;;;;;;28.73;15.27;;;-5.20;99.90;-5.70;99861.00;;;;4993582;27;87339;-66
2022/12/16 01:45:37;;;;;;;17.23;10.93;;;-5.10;99.90;-5.70;99855.00;;;;4977286;28;87450;-66
2022/12/16 01:48:37;;;;;;;28.00;13.97;;;-5.10;99.90;-5.60;99854.00;;;;4978235;28;87151;-66
2022/12/16 01:51:27;;;;;;;20.03;11.97;;;-5.00;99.90;-5.60;99863.00;;;;4966877;28;87323;-66
2022/12/16 01:54:07;;;;;;;23.00;14.27;;;-4.90;99.90;-5.50;99858.00;;;;4979941;27;86556;-65
2022/12/16 01:56:37;;;;;;;24.30;14.27;;;-4.90;99.90;-5.50;99866.00;;;;4975830;28;87497;-66
2022/12/16 01:59:04;;;;;;;29.27;15.30;;;-4.90;99.90;-5.40;99860.00;;;;4988645;27;87860;-66
2022/12/16 02:01:30;;;;;;;23.80;12.87;;;-4.80;99.90;-5.40;99858.00;;;;4971595;28;88431;-66
2022/12/16 02:04:00;;;;;;;24.80;12.63;;;-4.60;99.90;-5.50;99847.00;;;;4990239;27;87525;-65
2022/12/16 02:06:28;;;;;;;30.63;14.87;;;-4.80;99.90;-5.50;99854.00;;;;4988407;27;88691;-66
2022/12/16 02:09:00;;;;;;;20.47;12.30;;;-4.80;99.90;-5.40;99831.00;;;;4990631;27;87889;-66
2022/12/16 02:12:16;;;;;;;22.03;13.30;;;-4.80;99.90;-5.50;99825.00;;;;4992590;27;86934;-66
2022/12/16 02:15:16;;;;;;;19.27;12.57;;;-4.80;99.90;-5.40;99837.00;;;;4984509;27;87219;-65
2022/12/16 02:18:22;;;;;;;25.83;12.20;;;-4.70;99.90;-5.40;99831.00;;;;4973816;28;87613;-66
2022/12/16 02:21:16;;;;;;;28.07;14.67;;;-4.80;99.90;-5.30;99828.00;;;;4973256;28;87780;-65
2022/12/16 02:24:06;;;;;;;23.53;14.00;;;-4.80;99.90;-5.30;99829.00;;;;4976767;27;87575;-66
2022/12/16 02:26:59;;;;;;;26.23;14.27;;;-4.70;99.90;-5.20;99811.00;;;;4984973;27;87586;-66
2022/12/16 02:29:56;;;;;;;28.20;13.63;;;-4.70;99.90;-5.20;99811.00;;;;4969395;28;88651;-67
2022/12/16 02:33:02;;;;;;;31.27;14.67;;;-4.60;99.90;-5.20;99817.00;;;;4960390;27;89935;-65
2022/12/16 02:35:39;;;;;;;25.67;14.90;;;-4.60;99.90;-5.10;99811.00;;;;4987838;28;87229;-66
2022/12/16 02:38:34;;;;;;;34.07;15.60;;;-4.50;99.90;-5.10;99806.00;;;;4991223;27;87787;-64
2022/12/16 02:41:11;;;;;;;31.00;15.13;;;-4.60;99.90;-5.10;99812.00;;;;4990883;27;87048;-65
2022/12/16 02:43:57;;;;;;;27.93;14.73;;;-4.50;99.90;-5.10;99808.00;;;;4954544;28;87443;-65
2022/12/16 02:46:29;;;;;;;26.60;13.50;;;-4.20;99.90;-5.00;99812.00;;;;4954963;28;87096;-66
2022/12/16 02:48:56;;;;;;;30.00;15.30;;;-4.40;99.90;-5.00;99810.00;;;;4940053;28;86837;-65
2022/12/16 02:51:25;;;;;;;26.30;13.70;;;-4.50;99.90;-5.00;99807.00;;;;4955340;28;88418;-65
2022/12/16 02:53:53;;;;;;;35.77;15.27;;;-4.40;99.90;-4.90;99803.00;;;;4956676;28;87525;-66
2022/12/16 02:56:37;;;;;;;28.83;14.63;;;-4.50;99.90;-4.90;99803.00;;;;4955271;28;88485;-66
2022/12/16 02:59:40;;;;;;;26.20;13.10;;;-4.40;99.90;-4.90;99805.00;;;;4972452;28;87232;-66
2022/12/16 03:02:19;;;;;;;27.60;14.37;;;-4.30;99.90;-4.90;99810.00;;;;4955179;28;89172;-66
2022/12/16 03:04:53;;;;;;;27.70;14.53;;;-4.20;99.90;-4.90;99807.00;;;;4941074;28;87421;-64
2022/12/16 03:07:23;;;;;;;30.67;15.70;;;-4.30;99.90;-4.80;99805.00;;;;4973833;28;87363;-65
2022/12/16 03:09:50;;;;;;;27.33;14.17;;;-4.30;99.90;-4.80;99803.00;;;;4966267;28;87274;-65
2022/12/16 03:12:20;;;;;;;27.07;15.10;;;-4.20;99.90;-4.80;99797.00;;;;4956677;28;90827;-65
2022/12/16 03:14:50;;;;;;;24.30;14.10;;;-4.20;99.90;-4.80;99790.00;;;;4971637;28;88487;-64
2022/12/16 03:17:18;;;;;;;27.80;14.23;;;-4.20;99.90;-4.70;99788.00;;;;4957527;28;87053;-66
2022/12/16 03:19:52;;;;;;;27.57;14.17;;;-4.20;99.90;-4.70;99791.00;;;;4973654;28;87517;-66
2022/12/16 03:22:37;;;;;;;25.50;14.30;;;-4.10;99.90;-4.70;99788.00;;;;4970648;28;88743;-66
2022/12/16 03:25:05;;;;;;;23.10;14.80;;;-4.10;99.90;-4.70;99791.00;;;;4972129;28;88517;-66
2022/12/16 03:27:56;;;;;;;30.67;15.50;;;-4.70;99.90;-4.70;99796.00;;;;4975934;28;87011;-67
2022/12/16 03:30:38;;;;;;;24.83;14.47;;;-4.10;99.90;-4.70;99797.00;;;;4964635;28;87744;-66
2022/12/16 03:33:26;;;;;;;28.37;15.00;;;-4.10;99.90;-4.60;99790.00;;;;4976638;28;87718;-66
2022/12/16 03:36:06;;;;;;;26.37;15.10;;;-4.00;99.90;-4.70;99790.00;;;;4959707;28;87466;-66
2022/12/16 03:38:33;;;;;;;26.53;15.73;;;-4.10;99.90;-4.60;99807.00;;;;4980174;28;87724;-67
2022/12/16 03:41:01;;;;;;;25.97;16.33;;;-4.10;99.90;-4.60;99804.00;;;;4979719;28;86864;-64
2022/12/16 03:43:27;;;;;;;28.30;16.40;;;-4.10;99.90;-4.60;99796.00;;;;4978587;28;87740;-66
2022/12/16 03:45:59;;;;;;;40.63;18.57;;;-4.10;99.90;-4.60;99798.00;;;;4995098;27;88129;-65
2022/12/16 03:48:25;;;;;;;30.70;16.60;;;-3.90;99.90;-4.60;99811.00;;;;4976554;28;88742;-64
2022/12/16 03:50:51;;;;;;;34.17;18.27;;;-4.00;99.90;-4.50;99805.00;;;;4980094;28;87331;-64
2022/12/16 03:53:17;;;;;;;34.00;18.33;;;-4.00;99.90;-4.50;99800.00;;;;4994406;28;87501;-65
2022/12/16 03:55:43;;;;;;;37.77;18.20;;;-3.90;99.90;-4.50;99803.00;;;;4991112;27;87587;-66
2022/12/16 03:58:09;;;;;;;33.27;18.57;;;-3.90;99.90;-4.50;99801.00;;;;4978183;27;87241;-64
2022/12/16 04:00:35;;;;;;;41.33;17.73;;;-4.00;99.90;-4.50;99798.00;;;;4993474;28;87823;-64
2022/12/16 04:03:01;;;;;;;31.40;17.50;;;-3.90;99.90;-4.40;99819.00;;;;4987569;28;88001;-63
2022/12/16 04:05:27;;;;;;;33.00;18.53;;;-3.90;99.90;-4.50;99806.00;;;;4988692;28;88223;-64
2022/12/16 04:07:53;;;;;;;30.40;17.97;;;-4.00;99.90;-4.40;99811.00;;;;4973305;28;87523;-65
2022/12/16 04:24:17;;;;;;;36.33;19.37;;;-3.80;99.90;-4.40;99809.00;;;;4990164;28;103067;-66
2022/12/16 04:24:21;;;;;;;33.93;18.43;;;-3.80;99.90;-4.50;99817.00;;;;4955033;28;88057;-66
2022/12/16 04:29:32;;;;;;;29.03;17.53;;;-4.00;99.90;-4.50;99820.00;;;;4991214;28;87409;-63
2022/12/16 04:31:59;;;;;;;34.67;17.07;;;-3.90;99.90;-4.50;99826.00;;;;4993614;28;86952;-65
2022/12/16 04:34:25;;;;;;;27.43;16.27;;;-3.90;99.90;-4.50;99818.00;;;;4975364;28;87733;-66
